Latest Weather Observations for Latrobe Valley

IDV60801

Issued at 1:05 am EST Wednesday 17 September 2014 (issued every 30 minutes, with the page automatically refreshed every 10 minutes)

About weather observations | Map of weather stations | Latest weather observations for VIC | Other Formats
Station Details ID: 085280 Name: LATROBE VALLEY AIRPORT Lat: -38.21 Lon: 146.47 Height: 55.7 m
Data from the previous 72 hours. | See also: Recent months at Latrobe Valley
Date/Time
EST
Temp
°C
App
Temp
°C
Dew
Point
Rel
Hum
%
Delta-T
°C
Wind Press
QNH
hPa
Press
MSL
hPa
Rain
since 9 am
mm
Dir
 
Spd
km/h
Gust
km/h
Spd
kts
Gust
kts
17/01:00am 9.9 5.7 9.8 99 0.1 WNW 22 28 12 15 1012.0 1012.1 1.0
17/12:54am 9.9 5.7 9.9 100 0.0 WNW 22 30 12 16 1012.0 1012.1 1.0
17/12:40am 10.2 7.1 10.2 100 0.0 WNW 17 20 9 11 1012.0 1012.1 1.0
17/12:30am 10.2 6.7 10.2 100 0.0 WNW 19 24 10 13 1012.1 1012.2 1.0
17/12:00am 10.4 7.0 10.4 100 0.0 WNW 19 24 10 13 1012.0 1012.1 1.0
 
Date/Time
EST
Temp
°C
App
Temp
°C
Dew
Point
Rel
Hum
%
Delta-T
°C
Wind Press
QNH
hPa
Press
MSL
hPa
Rain
since 9 am
mm
Dir
 
Spd
km/h
Gust
km/h
Spd
kts
Gust
kts
16/11:30pm 10.6 6.6 10.6 100 0.0 WNW 22 26 12 14 1011.9 1012.0 1.0
16/11:00pm 10.6 7.2 10.6 100 0.0 W 19 24 10 13 1012.1 1012.2 1.0
16/10:30pm 10.6 7.2 10.6 100 0.0 W 19 24 10 13 1012.0 1012.1 1.0
16/10:00pm 10.6 7.0 10.6 100 0.0 W 20 28 11 15 1011.9 1012.0 1.0
16/09:53pm 10.6 7.0 10.6 100 0.0 W 20 24 11 13 1011.8 1011.9 1.0
16/09:30pm 10.9 6.6 10.7 99 0.1 W 24 35 13 19 1011.7 1011.8 1.0
16/09:28pm 10.9 6.6 10.7 99 0.1 W 24 35 13 19 1011.6 1011.7 1.0
16/09:27pm 10.9 6.6 10.7 99 0.1 W 24 35 13 19 1011.6 1011.7 1.0
16/09:07pm 11.3 6.3 11.0 98 0.2 W 28 37 15 20 1011.4 1011.5 0.6
16/09:00pm 11.4 6.3 10.6 95 0.4 W 28 39 15 21 1011.3 1011.4 0.2
16/08:30pm 11.9 6.8 10.5 91 0.7 W 28 35 15 19 1011.1 1011.2 0.2
16/08:00pm 12.1 6.5 10.0 87 1.1 W 30 41 16 22 1010.8 1010.9 0.2
16/07:30pm 12.2 7.0 10.3 88 1.0 W 28 39 15 21 1010.5 1010.6 0.2
16/07:00pm 12.6 7.9 10.7 88 1.0 W 26 33 14 18 1010.1 1010.2 0.2
16/06:30pm 12.7 8.8 10.8 88 1.0 W 22 28 12 15 1010.0 1010.1 0.2
16/06:00pm 13.3 9.3 10.3 82 1.6 W 22 28 12 15 1009.8 1009.9 0.2
16/05:30pm 13.4 9.9 10.9 85 1.3 W 20 28 11 15 1009.6 1009.7 0.2
16/05:00pm 13.6 7.9 11.1 85 1.3 WSW 32 41 17 22 1008.9 1009.0 0.2
16/04:30pm 14.7 10.7 11.7 82 1.6 W 24 32 13 17 1008.3 1008.4 0.2
16/04:00pm 14.4 10.6 12.4 88 1.1 W 24 30 13 16 1007.9 1008.0 0.2
16/03:30pm 14.4 9.8 12.3 87 1.1 W 28 39 15 21 1007.8 1007.9 0.2
16/03:00pm 15.7 11.3 13.0 84 1.5 W 28 41 15 22 1007.4 1007.5 0.2
16/02:42pm 14.6 10.4 12.5 87 1.1 W 26 33 14 18 1007.5 1007.6 0.2
16/02:30pm 14.3 9.7 12.3 88 1.1 W 28 35 15 19 1007.5 1007.6 0.2
16/02:26pm 14.4 9.9 12.6 89 1.0 W 28 35 15 19 1007.4 1007.5 0.2
16/02:00pm 14.4 10.2 12.4 88 1.1 W 26 37 14 20 1007.6 1007.7 0.2
16/01:30pm 14.7 9.8 12.4 86 1.3 W 30 37 16 20 1007.5 1007.6 0.2
16/01:00pm 15.8 12.2 13.1 84 1.5 WNW 24 32 13 17 1007.6 1007.7 0.0
16/12:30pm 15.0 11.4 12.9 87 1.2 W 24 32 13 17 1007.8 1007.9 0.0
16/12:00pm 14.7 11.0 12.7 88 1.1 W 24 33 13 18 1008.1 1008.2 0.0
16/11:30am 14.6 11.3 12.8 89 1.0 WNW 22 30 12 16 1008.3 1008.4 0.0
16/11:02am 15.2 14.1 13.1 87 1.2 NW 11 17 6 9 1008.4 1008.5 0.0
16/11:00am 15.4 14.5 13.6 89 1.0 NW 11 15 6 8 1008.4 1008.5 0.0
16/10:30am 14.3 13.5 13.0 92 0.7 NW 9 11 5 6 1008.6 1008.7 0.0
16/10:22am 14.5 13.9 13.5 94 0.6 NW 9 13 5 7 1008.7 1008.8 0.0
16/10:13am 14.3 13.6 13.2 93 0.6 NNW 9 13 5 7 1008.7 1008.8 0.0
16/10:00am 14.6 14.2 13.1 91 0.8 NNE 7 11 4 6 1008.6 1008.7 0.0
16/09:30am 14.1 13.0 13.0 93 0.6 ENE 11 17 6 9 1008.5 1008.6 0.0
16/09:00am 13.9 13.4 13.7 99 0.1 E 9 15 5 8 1008.5 1008.6 1.0
16/08:30am 13.2 12.5 13.2 100 0.0 NE 9 13 5 7 1008.6 1008.7 1.0
16/08:00am 12.9 12.1 12.9 100 0.0 NNE 9 11 5 6 1008.6 1008.7 1.0
16/07:53am 12.7 12.2 12.7 100 0.0 NE 7 9 4 5 1008.6 1008.7 1.0
16/07:40am 12.2 11.6 12.2 100 0.0 NE 7 11 4 6 1008.5 1008.6 1.0
16/07:30am 11.9 10.8 11.9 100 0.0 NNE 9 11 5 6 1008.5 1008.6 1.0
16/07:00am 11.3 10.6 11.3 100 0.0 NNE 6 7 3 4 1008.6 1008.7 1.0
16/06:30am 11.3 10.0 11.3 100 0.0 NNE 9 9 5 5 1008.6 1008.7 1.0
16/06:25am 11.4 10.5 11.2 99 0.1 NNE 7 9 4 5 1008.6 1008.7 1.0
16/06:00am 11.9 11.1 11.7 99 0.1 ENE 7 9 4 5 1008.6 1008.7 1.0
16/05:30am 11.9 11.3 11.7 99 0.1 E 6 13 3 7 1008.6 1008.7 1.0
16/05:00am 12.1 10.2 11.9 99 0.1 E 13 20 7 11 1008.4 1008.5 1.0
16/04:30am 11.9 9.6 11.7 99 0.1 E 15 26 8 14 1008.2 1008.3 1.0
16/04:03am 12.1 9.8 11.9 99 0.1 E 15 22 8 12 1008.5 1008.6 0.8
16/04:00am 12.1 9.8 11.9 99 0.1 E 15 24 8 13 1008.4 1008.5 0.8
16/03:30am 12.0 10.5 11.8 99 0.1 SSE 11 17 6 9 1008.8 1008.9 0.8
16/03:00am 11.8 10.6 11.6 99 0.1 SE 9 15 5 8 1009.1 1009.2 0.6
16/02:40am 11.7 10.8 11.5 99 0.1 E 7 17 4 9 1009.2 1009.3 0.6
16/02:30am 11.7 8.9 11.5 99 0.1 E 17 28 9 15 1009.0 1009.1 0.6
16/02:00am 11.7 9.4 11.7 100 0.0 E 15 22 8 12 1009.5 1009.6 0.6
16/01:30am 11.7 9.4 11.7 100 0.0 E 15 24 8 13 1010.0 1010.1 0.6
16/01:00am 11.6 9.2 11.4 99 0.1 ENE 15 24 8 13 1010.5 1010.6 0.6
16/12:32am 11.5 9.1 11.5 100 0.0 ENE 15 22 8 12 1011.2 1011.3 0.6
16/12:30am 11.5 9.1 11.5 100 0.0 ENE 15 22 8 12 1011.2 1011.3 0.6
16/12:00am 11.7 9.0 11.7 100 0.0 ENE 17 22 9 12 1011.2 1011.3 0.6
 
Date/Time
EST
Temp
°C
App
Temp
°C
Dew
Point
Rel
Hum
%
Delta-T
°C
Wind Press
QNH
hPa
Press
MSL
hPa
Rain
since 9 am
mm
Dir
 
Spd
km/h
Gust
km/h
Spd
kts
Gust
kts
15/11:30pm 11.8 9.8 11.6 99 0.1 E 13 19 7 10 1011.5 1011.6 0.6
15/11:00pm 11.7 9.7 11.5 99 0.1 E 13 19 7 10 1012.1 1012.2 0.6
15/10:30pm 11.6 9.2 11.3 98 0.2 E 15 24 8 13 1012.0 1012.1 0.6
15/10:00pm 11.3 9.5 11.0 98 0.2 E 11 17 6 9 1012.5 1012.6 0.6
15/09:30pm 11.2 9.0 10.9 98 0.2 E 13 17 7 9 1012.8 1012.9 0.6
15/09:14pm 11.2 8.7 10.9 98 0.2 ENE 15 20 8 11 1012.8 1012.9 0.6
15/09:00pm 11.3 9.2 11.0 98 0.2 ENE 13 19 7 10 1013.1 1013.2 0.6
15/08:30pm 11.3 9.1 10.8 97 0.3 ENE 13 22 7 12 1013.4 1013.4 0.6
15/08:00pm 11.3 9.0 10.5 95 0.4 NE 13 20 7 11 1013.1 1013.2 0.6
15/07:30pm 11.4 8.0 11.1 98 0.2 E 20 32 11 17 1012.7 1012.8 0.6
15/07:00pm 11.5 9.1 11.3 99 0.1 E 15 20 8 11 1013.4 1013.4 0.6
15/06:30pm 11.8 9.8 11.5 98 0.2 ENE 13 22 7 12 1013.7 1013.7 0.6
15/06:00pm 11.9 9.1 11.4 97 0.3 ENE 17 24 9 13 1013.1 1013.2 0.6
15/05:30pm 12.1 9.7 11.5 96 0.3 E 15 26 8 14 1013.1 1013.2 0.6
15/05:18pm 12.3 9.2 11.7 96 0.3 E 19 26 10 14 1012.6 1012.7 0.6
15/05:00pm 12.9 10.2 11.8 93 0.6 E 17 28 9 15 1013.3 1013.3 0.4
15/04:30pm 13.7 11.8 11.7 88 1.1 ENE 13 19 7 10 1013.5 1013.5 0.2
15/04:23pm 14.0 12.1 11.9 87 1.1 NE 13 17 7 9 1013.5 1013.5 0.2
15/04:00pm 14.4 11.3 11.7 84 1.5 NE 19 24 10 13 1012.9 1013.0 0.2
15/03:30pm 14.7 12.1 12.0 84 1.5 NE 17 24 9 13 1012.7 1012.8 0.2
15/03:00pm 14.6 11.3 11.6 82 1.6 NE 20 26 11 14 1012.8 1012.9 0.2
15/02:30pm 14.9 11.6 11.5 80 1.8 NE 20 26 11 14 1013.1 1013.2 0.2
15/02:00pm 15.0 12.2 11.4 79 1.9 ENE 17 24 9 13 1013.6 1013.6 0.2
15/01:30pm 15.2 13.2 11.4 78 2.0 E 13 17 7 9 1014.0 1014.0 0.2
15/01:00pm 14.8 11.4 10.4 75 2.3 ENE 19 26 10 14 1014.3 1014.3 0.2
15/12:30pm 14.4 11.3 10.2 76 2.2 ENE 17 24 9 13 1014.8 1014.8 0.2
15/12:00pm 14.0 11.4 10.8 81 1.7 E 15 22 8 12 1015.3 1015.3 0.2
15/11:30am 13.3 11.7 11.7 90 0.9 ENE 11 17 6 9 1016.0 1016.0 0.2
15/11:00am 11.8 10.3 11.8 100 0.0 ENE 11 15 6 8 1016.5 1016.5 0.2
15/10:30am 9.9 8.2 9.9 100 0.0 NE 9 13 5 7 1017.0 1017.0 0.2
15/10:00am 9.0 7.1 9.0 100 0.0 NE 9 11 5 6 1017.0 1017.0 0.0
15/09:30am 9.1 7.6 9.1 100 0.0 NE 7 11 4 6 1017.2 1017.2 0.0
15/09:00am 8.4 6.9 8.4 100 0.0 NE 6 7 3 4 1017.5 1017.5 0.0
15/08:30am 7.7 6.0 7.7 100 0.0 ENE 6 7 3 4 1017.7 1017.7 0.0
15/08:00am 7.2 6.6 7.2 100 0.0 CALM 0 4 0 2 1017.9 1017.9 0.0
15/07:43am 6.5 4.4 6.5 100 0.0 NNE 7 9 4 5 1017.8 1017.8 0.0
15/07:42am 6.5 4.4 6.5 100 0.0 NNE 7 9 4 5 1017.8 1017.8 0.0
15/07:30am 6.2 4.2 6.2 100 0.0 N 6 9 3 5 1017.7 1017.7 0.0
15/07:00am 5.3 4.2 5.3 100 0.0 CALM 0 0 0 0 1017.5 1017.5 0.0
15/06:30am 3.8 2.4 3.8 100 0.0 CALM 0 0 0 0 1017.5 1017.5 0.0
15/06:00am 3.7 2.3 3.7 100 0.0 CALM 0 0 0 0 1017.1 1017.1 0.0
15/05:30am 3.8 2.4 3.8 100 0.0 CALM 0 0 0 0 1017.2 1017.2 0.0
15/05:00am 3.8 2.4 3.8 100 0.0 CALM 0 0 0 0 1016.8 1016.8 0.0
15/04:43am 4.2 2.9 4.2 100 0.0 CALM 0 0 0 0 1016.9 1016.9 0.0
15/04:32am 4.1 2.8 4.1 100 0.0 CALM 0 0 0 0 1016.9 1016.9 0.0
15/04:30am 4.2 2.9 4.2 100 0.0 CALM 0 0 0 0 1016.9 1016.9 0.0
15/04:12am 3.8 2.4 3.8 100 0.0 CALM 0 0 0 0 1017.2 1017.2 0.0
15/04:00am 4.0 2.7 4.0 100 0.0 CALM 0 0 0 0 1017.2 1017.2 0.0
15/03:32am 3.4 2.0 3.3 99 0.0 CALM 0 0 0 0 1017.3 1017.3 0.0
15/03:30am 3.6 2.2 3.5 99 0.0 CALM 0 0 0 0 1017.3 1017.3 0.0
15/03:05am 4.0 2.7 3.9 99 0.0 CALM 0 0 0 0 1017.6 1017.6 0.0
15/03:00am 4.3 3.0 4.3 100 0.0 CALM 0 0 0 0 1017.7 1017.7 0.0
15/02:30am 4.9 3.8 4.9 100 0.0 CALM 0 0 0 0 1017.9 1017.9 0.0
15/02:10am 5.4 4.4 5.4 100 0.0 CALM 0 0 0 0 1018.0 1018.0 0.0
15/02:00am 5.7 4.7 5.7 100 0.0 CALM 0 0 0 0 1018.1 1018.1 0.0
15/01:52am 5.5 4.5 5.5 100 0.0 CALM 0 0 0 0 1018.3 1018.3 0.0
15/01:30am 5.9 5.0 5.9 100 0.0 CALM 0 0 0 0 1018.6 1018.6 0.0
15/01:20am 5.9 5.0 5.9 100 0.0 CALM 0 0 0 0 1018.6 1018.6 0.0
15/01:01am 5.4 4.3 5.3 99 0.0 CALM 0 0 0 0 1018.9 1018.9 0.0
15/01:00am 5.5 4.5 5.4 99 0.0 CALM 0 0 0 0 1018.9 1018.9 0.0
15/12:30am 5.7 4.7 5.6 99 0.0 CALM 0 0 0 0 1019.1 1019.1 0.0
15/12:00am 6.4 5.6 6.3 99 0.0 CALM 0 0 0 0 1019.1 1019.1 0.0
 
Date/Time
EST
Temp
°C
App
Temp
°C
Dew
Point
Rel
Hum
%
Delta-T
°C
Wind Press
QNH
hPa
Press
MSL
hPa
Rain
since 9 am
mm
Dir
 
Spd
km/h
Gust
km/h
Spd
kts
Gust
kts
14/11:30pm 5.7 4.7 5.6 99 0.0 CALM 0 0 0 0 1019.3 1019.3 0.0
14/11:03pm 7.7 6.0 7.6 99 0.0 SW 6 7 3 4 1019.5 1019.5 0.0
14/11:00pm 7.3 5.5 7.2 99 0.0 SSW 6 7 3 4 1019.5 1019.5 0.0
14/10:49pm 7.2 6.1 7.1 99 0.0 S 2 7 1 4 1019.6 1019.6 0.0
14/10:30pm 7.7 6.0 7.6 99 0.0 SW 6 7 3 4 1019.8 1019.8 0.0
14/10:00pm 6.8 5.2 6.4 97 0.2 N 4 9 2 5 1019.9 1019.9 0.0
14/09:30pm 8.4 6.6 8.1 98 0.1 ESE 7 11 4 6 1019.9 1019.9 0.0
14/09:00pm 8.8 7.7 8.4 97 0.2 SW 4 7 2 4 1019.8 1019.8 0.0
14/08:30pm 9.3 7.6 8.4 94 0.4 WNW 7 9 4 5 1019.8 1019.8 0.0
14/08:00pm 9.7 9.0 8.6 93 0.5 N 2 6 1 3 1019.7 1019.7 0.0
14/07:30pm 9.7 7.2 8.1 90 0.8 WSW 11 13 6 7 1019.4 1019.4 0.0
14/07:00pm 11.0 7.7 8.0 82 1.5 SW 15 17 8 9 1019.0 1019.0 0.0
14/06:30pm 12.4 9.7 7.5 72 2.4 SW 11 15 6 8 1018.8 1018.8 0.0
14/06:00pm 13.6 10.6 7.8 68 2.9 SSW 13 17 7 9 1018.5 1018.5 0.0
14/05:30pm 15.0 12.2 8.7 66 3.2 SSW 13 20 7 11 1018.4 1018.4 0.0
14/05:00pm 15.7 12.7 9.1 65 3.4 SSW 15 22 8 12 1018.3 1018.3 0.0
14/04:30pm 16.4 12.6 8.9 61 3.9 SSW 19 26 10 14 1018.4 1018.4 0.0
14/04:00pm 16.9 13.0 9.6 62 3.8 SW 20 26 11 14 1018.1 1018.1 0.0
14/03:30pm 17.6 13.9 9.5 59 4.3 WSW 19 24 10 13 1018.0 1018.0 0.0
14/03:00pm 16.6 13.3 8.1 57 4.3 SW 15 20 8 11 1018.2 1018.2 0.0
14/02:30pm 18.1 14.1 8.4 53 5.0 W 19 26 10 14 1018.3 1018.3 0.0
14/02:00pm 18.0 13.6 8.8 55 4.8 WNW 22 33 12 18 1018.5 1018.5 0.0
14/01:30pm 17.8 13.3 8.6 55 4.8 WNW 22 35 12 19 1018.7 1018.7 0.0
14/01:00pm 17.7 12.7 8.0 53 4.9 W 24 28 13 15 1019.1 1019.1 0.0
14/12:30pm 17.2 12.3 8.6 57 4.4 W 24 35 13 19 1019.5 1019.5 0.0
14/12:00pm 16.7 11.8 8.4 58 4.2 W 24 33 13 18 1019.9 1019.9 0.0
14/11:30am 15.7 10.9 7.2 57 4.2 WNW 22 30 12 16 1020.2 1020.2 0.0
14/11:00am 16.4 13.1 9.6 64 3.5 W 17 22 9 12 1020.5 1020.5 0.0
14/10:30am 15.6 12.6 9.1 65 3.3 W 15 22 8 12 1020.8 1020.8 0.0
14/10:00am 14.5 12.7 9.3 71 2.7 WSW 9 15 5 8 1021.2 1021.2 0.0
14/09:30am 13.8 11.6 9.5 75 2.2 SW 11 17 6 9 1021.5 1021.5 0.0
14/09:00am 13.1 10.6 9.7 80 1.7 WSW 13 17 7 9 1021.6 1021.6 0.2
14/08:30am 10.9 9.5 9.5 91 0.7 WSW 7 11 4 6 1021.6 1021.6 0.2
14/08:00am 9.5 9.0 9.4 99 0.0 S 2 9 1 5 1021.3 1021.3 0.2
14/07:30am 7.7 6.8 7.7 100 0.0 S 2 7 1 4 1021.3 1021.3 0.2
14/07:00am 6.4 5.6 6.4 100 0.0 CALM 0 6 0 3 1021.1 1021.1 0.2
14/06:30am 5.9 4.9 5.8 99 0.0 CALM 0 0 0 0 1021.0 1021.0 0.2
14/06:00am 6.1 5.2 6.0 99 0.0 CALM 0 0 0 0 1021.0 1021.0 0.2
14/05:30am 5.6 4.6 5.5 99 0.0 CALM 0 0 0 0 1020.9 1020.9 0.2
14/05:00am 6.4 4.4 6.3 99 0.0 NE 6 7 3 4 1020.7 1020.7 0.2
14/04:30am 6.9 6.1 6.6 98 0.1 CALM 0 0 0 0 1021.0 1021.0 0.2
14/04:00am 8.1 6.4 7.5 96 0.3 SE 6 7 3 4 1020.9 1020.9 0.2
14/03:30am 9.2 7.6 7.8 91 0.7 W 6 7 3 4 1021.1 1021.1 0.2
14/03:00am 9.7 9.3 8.3 91 0.7 CALM 0 0 0 0 1021.4 1021.4 0.2
14/02:30am 9.8 8.2 8.2 90 0.8 WNW 6 9 3 5 1021.8 1021.8 0.2
14/02:00am 10.2 9.8 8.1 87 1.0 CALM 0 0 0 0 1022.1 1022.1 0.2
14/01:30am 10.4 9.9 8.0 85 1.2 CALM 0 0 0 0 1022.4 1022.5 0.2

Other Formats:

Comma delimited format used in spreadsheet applications
http://www.bom.gov.au/fwo/IDV60801/IDV60801.94891.axf

JavaScript Object Notation format (JSON) in row-major order
http://www.bom.gov.au/fwo/IDV60801/IDV60801.94891.json